Time;durP1;ratioP1;P1;durP2;ratioP2;P2;SDS_P1;SDS_P2;PMS_P1;PMS_P2;Temp;Humidity;BMP_temperature;BMP_pressure;BME280_temperature;BME280_humidity;BME280_pressure;Samples;Min_cycle;Max_cycle;Signal;HPM_P1;HPM_P2
2022/11/09 00:02:08;;;;;;;;;;;20.20;47.00;;;;;;5080613;28;19912;-88
2022/11/09 00:04:34;;;;;;;;;;;20.20;47.00;;;;;;5077136;28;19928;-87
2022/11/09 00:07:03;;;;;;;;;;;20.30;47.00;;;;;;5057853;28;20295;-89
2022/11/09 00:09:28;;;;;;;;;;;20.20;46.90;;;;;;5063974;28;19966;-87
2022/11/09 00:11:54;;;;;;;;;;;20.20;47.10;;;;;;5061058;28;20178;-90
2022/11/09 00:14:19;;;;;;;;;;;20.30;47.10;;;;;;5060138;28;19917;-88
2022/11/09 00:16:45;;;;;;;;;;;20.30;47.00;;;;;;5049066;28;20275;-88
2022/11/09 00:19:12;;;;;;;;;;;20.30;46.80;;;;;;5059025;28;19917;-87
2022/11/09 00:21:37;;;;;;;;;;;20.30;46.90;;;;;;5057660;28;19927;-89
2022/11/09 00:24:03;;;;;;;;;;;20.30;47.00;;;;;;5056237;28;19928;-89
2022/11/09 00:26:28;;;;;;;;;;;20.40;46.80;;;;;;5051831;28;19932;-88
2022/11/09 00:28:54;;;;;;;;;;;20.40;46.70;;;;;;5069413;28;19952;-89
2022/11/09 00:31:20;;;;;;;;;;;20.40;46.80;;;;;;5065328;28;20295;-88
2022/11/09 00:33:46;;;;;;;;;;;20.50;46.70;;;;;;5066591;28;19958;-86
2022/11/09 00:36:12;;;;;;;;;;;20.60;46.50;;;;;;5074573;28;20315;-89
2022/11/09 00:38:41;;;;;;;;;;;20.50;46.60;;;;;;5074745;28;19915;-88
2022/11/09 00:41:08;;;;;;;;;;;20.60;46.40;;;;;;5052964;28;19917;-87
2022/11/09 00:43:34;;;;;;;;;;;20.60;46.30;;;;;;5055921;28;20502;-87
2022/11/09 00:45:59;;;;;;;;;;;20.60;46.30;;;;;;5070006;28;20442;-89
2022/11/09 00:48:25;;;;;;;;;;;20.60;46.40;;;;;;5074576;28;19917;-89
2022/11/09 00:50:52;;;;;;;;;;;20.60;46.40;;;;;;5054911;28;19916;-86
2022/11/09 00:53:18;;;;;;;;;;;20.70;46.20;;;;;;5054492;28;19909;-89
2022/11/09 00:55:53;;;;;;;;;;;20.70;46.20;;;;;;5055608;28;19944;-89
2022/11/09 00:58:19;;;;;;;;;;;20.70;46.20;;;;;;5052638;28;19969;-89
2022/11/09 01:00:45;;;;;;;;;;;20.70;46.10;;;;;;5052967;28;20015;-89
2022/11/09 01:03:11;;;;;;;;;;;20.70;46.10;;;;;;5054279;28;19909;-89
2022/11/09 01:05:38;;;;;;;;;;;20.80;46.00;;;;;;5052444;28;19924;-88
2022/11/09 01:08:04;;;;;;;;;;;20.80;45.90;;;;;;5052612;28;19913;-87
2022/11/09 01:10:30;;;;;;;;;;;20.80;46.00;;;;;;5053582;28;19927;-89
2022/11/09 01:12:56;;;;;;;;;;;20.80;45.90;;;;;;5052305;28;19913;-89
2022/11/09 01:15:21;;;;;;;;;;;20.70;46.00;;;;;;5055677;28;19948;-89
2022/11/09 01:17:47;;;;;;;;;;;20.70;46.10;;;;;;5066363;28;19928;-87
2022/11/09 01:20:13;;;;;;;;;;;20.80;46.00;;;;;;5065504;28;19954;-86
2022/11/09 01:22:39;;;;;;;;;;;20.80;45.90;;;;;;5060530;28;19913;-88
2022/11/09 01:25:04;;;;;;;;;;;20.80;46.10;;;;;;5080815;28;19920;-87
2022/11/09 01:27:31;;;;;;;;;;;20.80;45.90;;;;;;5089172;28;19952;-88
2022/11/09 01:29:57;;;;;;;;;;;20.80;45.90;;;;;;5072647;28;20331;-90
2022/11/09 01:32:23;;;;;;;;;;;20.90;45.70;;;;;;5066697;28;20373;-85
2022/11/09 01:34:48;;;;;;;;;;;20.90;45.70;;;;;;5070856;28;20024;-90
2022/11/09 01:37:13;;;;;;;;;;;20.80;45.80;;;;;;5073665;28;19924;-89
2022/11/09 01:39:39;;;;;;;;;;;20.90;45.70;;;;;;5071505;28;19908;-90
2022/11/09 01:42:05;;;;;;;;;;;21.00;45.60;;;;;;5071525;28;19921;-89
2022/11/09 01:44:32;;;;;;;;;;;21.00;45.50;;;;;;5067773;28;20581;-87
2022/11/09 01:47:05;;;;;;;;;;;21.00;45.50;;;;;;5059880;28;19923;-89
2022/11/09 01:49:47;;;;;;;;;;;20.90;45.60;;;;;;5058058;28;19909;-88
2022/11/09 01:52:20;;;;;;;;;;;21.00;45.60;;;;;;5071185;28;20286;-88
2022/11/09 01:54:48;;;;;;;;;;;21.00;45.60;;;;;;5073518;28;19920;-89
2022/11/09 01:57:25;;;;;;;;;;;20.90;45.80;;;;;;5070233;28;20534;-88
2022/11/09 01:59:54;;;;;;;;;;;20.90;45.70;;;;;;5063416;28;19995;-86
2022/11/09 02:02:19;;;;;;;;;;;20.90;45.80;;;;;;5052498;28;19959;-86
2022/11/09 02:04:50;;;;;;;;;;;21.00;45.70;;;;;;5059728;28;19920;-88
2022/11/09 02:07:16;;;;;;;;;;;21.00;45.60;;;;;;5063490;28;20567;-88
2022/11/09 02:10:00;;;;;;;;;;;20.90;45.70;;;;;;5050347;28;19963;-88
2022/11/09 02:12:27;;;;;;;;;;;21.00;45.60;;;;;;5072153;28;19920;-89
2022/11/09 02:14:53;;;;;;;;;;;21.00;45.60;;;;;;5052423;28;19913;-88
2022/11/09 02:17:19;;;;;;;;;;;20.90;45.70;;;;;;5051857;28;19925;-90
2022/11/09 02:19:45;;;;;;;;;;;21.00;45.70;;;;;;5050995;28;19925;-87
2022/11/09 02:22:11;;;;;;;;;;;21.00;45.60;;;;;;5063804;28;19923;-89
2022/11/09 02:24:37;;;;;;;;;;;20.90;45.70;;;;;;5085244;28;19908;-87
2022/11/09 02:27:03;;;;;;;;;;;20.90;45.70;;;;;;5081669;28;20370;-87
2022/11/09 02:29:34;;;;;;;;;;;20.80;45.70;;;;;;5072485;28;19908;-86
2022/11/09 02:32:01;;;;;;;;;;;20.90;45.70;;;;;;5071308;28;20301;-89
2022/11/09 02:34:26;;;;;;;;;;;20.90;45.70;;;;;;5071602;28;19965;-89
2022/11/09 02:36:52;;;;;;;;;;;20.80;45.70;;;;;;5070254;28;19932;-89
2022/11/09 02:39:19;;;;;;;;;;;20.80;45.70;;;;;;5070966;28;19909;-88
2022/11/09 02:41:47;;;;;;;;;;;20.80;45.80;;;;;;5065528;28;19928;-86
2022/11/09 02:44:13;;;;;;;;;;;20.80;45.90;;;;;;5051167;28;19913;-87
2022/11/09 02:46:39;;;;;;;;;;;20.70;46.00;;;;;;5050069;28;19978;-86
2022/11/09 02:49:04;;;;;;;;;;;20.70;46.20;;;;;;5051642;28;20013;-86
2022/11/09 02:51:30;;;;;;;;;;;20.70;46.20;;;;;;5063056;28;19916;-89
2022/11/09 02:53:57;;;;;;;;;;;20.60;46.30;;;;;;5071857;28;20765;-89
2022/11/09 02:56:22;;;;;;;;;;;20.70;46.30;;;;;;5068914;28;20044;-88
2022/11/09 02:58:48;;;;;;;;;;;20.70;46.30;;;;;;5059096;28;19968;-90
2022/11/09 03:01:14;;;;;;;;;;;20.50;46.60;;;;;;5068881;28;19916;-88
2022/11/09 03:03:40;;;;;;;;;;;20.50;46.70;;;;;;5056106;28;19913;-88
2022/11/09 03:06:06;;;;;;;;;;;20.60;46.70;;;;;;5063364;28;19986;-88
2022/11/09 03:08:31;;;;;;;;;;;20.50;46.80;;;;;;5088543;28;20028;-88
2022/11/09 03:11:00;;;;;;;;;;;20.50;46.90;;;;;;5082752;28;19916;-89
2022/11/09 03:13:26;;;;;;;;;;;20.60;46.80;;;;;;5068617;28;20016;-89
2022/11/09 03:15:51;;;;;;;;;;;20.50;46.70;;;;;;5054940;28;19949;-87
2022/11/09 03:18:17;;;;;;;;;;;20.60;46.70;;;;;;5058693;28;19927;-89
2022/11/09 03:20:43;;;;;;;;;;;20.50;46.80;;;;;;5053470;28;19971;-88
2022/11/09 03:23:09;;;;;;;;;;;20.50;47.00;;;;;;5061227;28;19916;-89
2022/11/09 03:25:35;;;;;;;;;;;20.50;47.00;;;;;;5063397;28;19921;-89
2022/11/09 03:28:02;;;;;;;;;;;20.40;47.10;;;;;;5051004;28;19945;-88
2022/11/09 03:30:28;;;;;;;;;;;20.40;47.30;;;;;;5050966;28;20000;-90
2022/11/09 03:33:00;;;;;;;;;;;20.40;47.20;;;;;;5062748;28;19991;-87
2022/11/09 03:35:26;;;;;;;;;;;20.30;47.60;;;;;;5057964;28;20319;-86
2022/11/09 03:37:51;;;;;;;;;;;20.30;47.70;;;;;;5051726;28;20405;-89
2022/11/09 03:40:17;;;;;;;;;;;20.30;47.70;;;;;;5050464;28;19917;-89
2022/11/09 03:42:44;;;;;;;;;;;20.30;47.80;;;;;;5059747;28;20409;-87
2022/11/09 03:45:10;;;;;;;;;;;20.30;47.80;;;;;;5059332;28;20337;-87
2022/11/09 03:47:39;;;;;;;;;;;20.30;47.80;;;;;;5063821;28;20282;-89
2022/11/09 03:50:05;;;;;;;;;;;20.20;47.80;;;;;;5052225;28;19916;-89
2022/11/09 03:52:30;;;;;;;;;;;20.20;47.70;;;;;;5050424;28;19912;-88
2022/11/09 03:54:56;;;;;;;;;;;20.10;48.20;;;;;;5050539;28;19908;-89
2022/11/09 03:57:21;;;;;;;;;;;20.10;48.30;;;;;;5049652;28;19930;-89
2022/11/09 03:59:47;;;;;;;;;;;20.00;48.70;;;;;;5063933;28;19950;-89
2022/11/09 04:02:12;;;;;;;;;;;20.00;48.60;;;;;;5056663;28;19916;-88
2022/11/09 04:04:38;;;;;;;;;;;20.00;48.80;;;;;;5070736;28;19908;-89
2022/11/09 04:07:04;;;;;;;;;;;20.10;48.50;;;;;;5057734;28;19921;-86
2022/11/09 04:09:30;;;;;;;;;;;20.10;48.40;;;;;;5055371;28;19940;-88
2022/11/09 04:11:55;;;;;;;;;;;19.90;48.90;;;;;;5057773;28;19917;-90
2022/11/09 04:14:21;;;;;;;;;;;19.90;49.00;;;;;;5054613;28;19991;-89
2022/11/09 04:16:46;;;;;;;;;;;19.90;48.90;;;;;;5063749;28;19951;-87
2022/11/09 04:19:12;;;;;;;;;;;19.90;49.00;;;;;;5074520;28;20351;-90
2022/11/09 04:21:37;;;;;;;;;;;19.90;49.00;;;;;;5073191;28;19988;-89
2022/11/09 04:24:03;;;;;;;;;;;19.90;49.00;;;;;;5073497;28;20663;-89
2022/11/09 04:26:30;;;;;;;;;;;19.90;49.00;;;;;;5058151;28;19921;-88
2022/11/09 04:28:55;;;;;;;;;;;19.90;49.00;;;;;;5062526;28;20386;-90
2022/11/09 04:31:21;;;;;;;;;;;19.80;49.30;;;;;;5073295;28;19959;-89
2022/11/09 04:33:50;;;;;;;;;;;19.90;49.10;;;;;;5072914;28;19908;-87
2022/11/09 04:36:15;;;;;;;;;;;19.90;49.30;;;;;;5072787;28;19959;-88
2022/11/09 04:38:41;;;;;;;;;;;19.80;49.60;;;;;;5073426;28;19993;-87
2022/11/09 04:41:07;;;;;;;;;;;19.90;49.40;;;;;;5072692;28;19916;-90
2022/11/09 04:43:33;;;;;;;;;;;20.00;49.20;;;;;;5072776;28;20015;-89
2022/11/09 04:45:59;;;;;;;;;;;19.90;49.20;;;;;;5057008;28;20408;-90
2022/11/09 04:48:25;;;;;;;;;;;19.90;49.10;;;;;;5053331;28;19913;-89
2022/11/09 04:50:51;;;;;;;;;;;19.80;49.40;;;;;;5054039;28;19923;-89
2022/11/09 04:53:16;;;;;;;;;;;19.90;49.40;;;;;;5054255;28;20441;-89
2022/11/09 04:55:42;;;;;;;;;;;19.90;49.40;;;;;;5052301;28;19921;-89
2022/11/09 04:58:08;;;;;;;;;;;19.80;49.70;;;;;;5053306;28;19920;-89
2022/11/09 05:00:34;;;;;;;;;;;19.90;49.50;;;;;;5052445;28;19917;-88
2022/11/09 05:03:01;;;;;;;;;;;19.80;49.60;;;;;;5069149;28;19908;-87
2022/11/09 05:05:26;;;;;;;;;;;19.90;49.90;;;;;;5061376;28;19970;-89
2022/11/09 05:07:52;;;;;;;;;;;19.80;49.90;;;;;;5073521;28;19912;-89
2022/11/09 05:10:18;;;;;;;;;;;19.80;50.00;;;;;;5072381;28;19928;-88
2022/11/09 05:12:44;;;;;;;;;;;19.90;49.90;;;;;;5072777;28;19908;-88
2022/11/09 05:15:09;;;;;;;;;;;19.90;49.90;;;;;;5073500;28;19909;-88
2022/11/09 05:17:35;;;;;;;;;;;19.90;50.00;;;;;;5073658;28;20302;-87
2022/11/09 05:20:00;;;;;;;;;;;20.00;49.80;;;;;;5073462;28;19999;-88
2022/11/09 05:25:10;;;;;;;;;;;19.90;49.80;;;;;;5067010;28;20371;-88
2022/11/09 05:27:37;;;;;;;;;;;19.90;49.80;;;;;;5071729;28;19917;-90
2022/11/09 05:30:03;;;;;;;;;;;19.90;49.90;;;;;;5072870;28;19947;-88
2022/11/09 05:32:45;;;;;;;;;;;19.90;49.90;;;;;;5108525;27;19912;-86
2022/11/09 05:35:10;;;;;;;;;;;19.80;50.20;;;;;;5108443;28;19995;-89
2022/11/09 05:37:39;;;;;;;;;;;19.80;50.20;;;;;;5108904;28;19962;-88
2022/11/09 05:40:05;;;;;;;;;;;19.70;50.50;;;;;;5107192;28;19959;-88
2022/11/09 05:42:31;;;;;;;;;;;19.80;50.50;;;;;;5106543;28;20400;-88
2022/11/09 05:44:56;;;;;;;;;;;19.70;50.80;;;;;;5106423;28;19926;-87
2022/11/09 05:47:22;;;;;;;;;;;19.80;50.70;;;;;;5108217;28;19959;-89
2022/11/09 05:49:48;;;;;;;;;;;19.70;50.80;;;;;;5108211;28;19908;-88
2022/11/09 05:52:13;;;;;;;;;;;19.70;50.90;;;;;;5107163;28;20019;-89
2022/11/09 05:54:39;;;;;;;;;;;19.80;50.50;;;;;;5107087;28;19911;-90
2022/11/09 05:57:05;;;;;;;;;;;19.80;50.40;;;;;;5108586;28;19922;-88
2022/11/09 05:59:30;;;;;;;;;;;19.80;50.40;;;;;;5107577;28;20014;-87
2022/11/09 06:01:56;;;;;;;;;;;19.80;50.40;;;;;;5110618;28;19916;-87
2022/11/09 06:04:22;;;;;;;;;;;19.80;50.40;;;;;;5107924;28;19915;-88
2022/11/09 06:06:47;;;;;;;;;;;19.80;50.30;;;;;;5109751;28;19916;-88
2022/11/09 06:09:14;;;;;;;;;;;19.80;50.40;;;;;;5108560;28;19915;-90
2022/11/09 06:11:39;;;;;;;;;;;19.80;50.50;;;;;;5107203;28;19936;-88
2022/11/09 06:14:05;;;;;;;;;;;19.90;50.50;;;;;;5108398;28;19919;-89
2022/11/09 06:16:31;;;;;;;;;;;19.90;50.40;;;;;;5107014;28;20346;-89
2022/11/09 06:18:57;;;;;;;;;;;19.90;50.40;;;;;;5100621;28;19909;-89
2022/11/09 06:21:22;;;;;;;;;;;19.90;50.30;;;;;;5088831;28;19921;-89
2022/11/09 06:23:48;;;;;;;;;;;20.00;50.20;;;;;;5086518;28;20426;-85
2022/11/09 06:26:14;;;;;;;;;;;20.00;50.20;;;;;;5104520;28;19922;-88
2022/11/09 06:28:40;;;;;;;;;;;20.00;50.10;;;;;;5111582;28;19919;-90
2022/11/09 06:31:07;;;;;;;;;;;20.00;50.00;;;;;;5104947;28;20448;-89
2022/11/09 06:33:34;;;;;;;;;;;20.00;50.00;;;;;;5101723;28;19950;-89
2022/11/09 06:36:00;;;;;;;;;;;19.90;50.10;;;;;;5094188;28;19927;-89
2022/11/09 06:38:26;;;;;;;;;;;19.80;50.40;;;;;;5105138;28;19912;-88
2022/11/09 06:40:52;;;;;;;;;;;19.80;50.40;;;;;;5105187;28;19920;-88
2022/11/09 06:43:18;;;;;;;;;;;19.80;50.40;;;;;;5076997;28;19908;-86
2022/11/09 06:45:43;;;;;;;;;;;19.80;50.50;;;;;;5088198;28;20505;-90
2022/11/09 06:48:09;;;;;;;;;;;19.70;50.80;;;;;;5093411;28;19985;-89
2022/11/09 06:50:35;;;;;;;;;;;19.70;50.80;;;;;;5092718;28;20439;-89
2022/11/09 06:53:02;;;;;;;;;;;19.80;50.50;;;;;;5081230;28;19918;-88
2022/11/09 06:55:28;;;;;;;;;;;19.80;50.40;;;;;;5093009;28;19999;-86
2022/11/09 06:57:55;;;;;;;;;;;19.80;50.40;;;;;;5085747;28;19946;-88
2022/11/09 07:00:21;;;;;;;;;;;19.80;50.50;;;;;;5074503;28;19915;-88
2022/11/09 07:02:47;;;;;;;;;;;19.70;50.60;;;;;;5072968;28;19909;-89
2022/11/09 07:05:12;;;;;;;;;;;19.70;50.40;;;;;;5074333;28;19957;-89
2022/11/09 07:07:38;;;;;;;;;;;19.70;50.60;;;;;;5073636;28;19939;-89
2022/11/09 07:10:04;;;;;;;;;;;19.70;50.60;;;;;;5077013;28;19916;-89
2022/11/09 07:12:31;;;;;;;;;;;19.70;50.50;;;;;;5090273;28;19948;-85
2022/11/09 07:14:57;;;;;;;;;;;19.70;50.60;;;;;;5092753;28;20274;-88
2022/11/09 07:17:22;;;;;;;;;;;19.60;50.80;;;;;;5086719;28;19920;-86
2022/11/09 07:19:48;;;;;;;;;;;19.70;50.60;;;;;;5084552;28;19946;-88
2022/11/09 07:22:13;;;;;;;;;;;19.80;50.60;;;;;;5088442;28;20289;-88
2022/11/09 07:24:39;;;;;;;;;;;19.80;50.50;;;;;;5088404;28;19999;-85
2022/11/09 07:27:05;;;;;;;;;;;19.80;50.30;;;;;;5088855;28;19927;-86
2022/11/09 07:29:31;;;;;;;;;;;19.90;50.00;;;;;;5088570;28;19916;-88
2022/11/09 07:31:56;;;;;;;;;;;19.90;49.90;;;;;;5071884;28;19934;-88
2022/11/09 07:34:22;;;;;;;;;;;19.80;50.00;;;;;;5092803;28;19920;-86
2022/11/09 07:36:57;;;;;;;;;;;19.90;49.80;;;;;;5091460;28;20630;-90
2022/11/09 07:39:22;;;;;;;;;;;20.00;49.70;;;;;;5088250;28;19920;-89
2022/11/09 07:41:48;;;;;;;;;;;19.90;49.80;;;;;;5089069;28;20327;-87
2022/11/09 07:44:17;;;;;;;;;;;20.00;49.70;;;;;;5089383;28;19920;-86
2022/11/09 07:46:45;;;;;;;;;;;20.00;49.70;;;;;;5087069;28;19912;-89
2022/11/09 07:49:12;;;;;;;;;;;20.00;49.80;;;;;;5090876;28;20445;-90
2022/11/09 07:51:38;;;;;;;;;;;20.10;49.80;;;;;;5087833;28;19924;-89
2022/11/09 07:54:05;;;;;;;;;;;20.20;49.60;;;;;;5080085;28;19946;-90
2022/11/09 07:56:31;;;;;;;;;;;20.20;49.40;;;;;;5078215;28;19918;-89
2022/11/09 07:58:56;;;;;;;;;;;20.30;49.10;;;;;;5088808;28;19999;-89
2022/11/09 08:01:22;;;;;;;;;;;20.30;49.00;;;;;;5086212;28;19912;-89
2022/11/09 08:03:48;;;;;;;;;;;20.30;48.80;;;;;;5088347;28;19926;-91
2022/11/09 08:06:16;;;;;;;;;;;20.20;48.70;;;;;;5084373;28;19916;-88
2022/11/09 08:08:44;;;;;;;;;;;20.30;48.70;;;;;;5096513;28;20603;-87
2022/11/09 08:11:10;;;;;;;;;;;20.40;48.50;;;;;;5084696;28;19926;-89
2022/11/09 08:13:43;;;;;;;;;;;20.40;48.50;;;;;;5092581;28;20035;-89
2022/11/09 08:16:08;;;;;;;;;;;20.40;48.30;;;;;;5090166;28;19916;-89
2022/11/09 08:18:34;;;;;;;;;;;20.40;48.30;;;;;;5083332;28;19924;-89
2022/11/09 08:21:01;;;;;;;;;;;20.40;48.40;;;;;;5085694;28;20521;-89
2022/11/09 08:23:27;;;;;;;;;;;20.50;48.20;;;;;;5086386;28;20386;-86
2022/11/09 08:25:52;;;;;;;;;;;20.60;48.10;;;;;;5093560;28;20006;-87
2022/11/09 08:28:21;;;;;;;;;;;20.70;48.10;;;;;;5088517;28;20334;-88
2022/11/09 08:30:53;;;;;;;;;;;20.80;48.10;;;;;;5086193;28;19984;-89
2022/11/09 08:33:19;;;;;;;;;;;20.90;48.10;;;;;;5088863;28;19916;-88
2022/11/09 08:35:48;;;;;;;;;;;21.00;47.80;;;;;;5086348;28;20053;-89
2022/11/09 08:38:17;;;;;;;;;;;21.30;47.60;;;;;;5085155;28;19924;-90
2022/11/09 08:40:42;;;;;;;;;;;21.40;47.30;;;;;;5084910;28;19922;-89
2022/11/09 08:43:09;;;;;;;;;;;21.50;46.50;;;;;;5088803;28;19920;-89
2022/11/09 08:45:36;;;;;;;;;;;21.60;46.10;;;;;;5075226;28;19916;-88
2022/11/09 08:48:02;;;;;;;;;;;21.60;45.90;;;;;;5068428;28;19912;-88
2022/11/09 08:50:28;;;;;;;;;;;21.60;45.80;;;;;;5068178;28;19920;-86
2022/11/09 08:52:57;;;;;;;;;;;21.70;45.80;;;;;;5068023;28;19912;-88
2022/11/09 08:55:23;;;;;;;;;;;21.70;45.60;;;;;;5068205;28;19924;-86
2022/11/09 08:57:51;;;;;;;;;;;21.70;45.30;;;;;;5089934;28;19916;-89
2022/11/09 09:00:17;;;;;;;;;;;21.80;45.20;;;;;;5083751;28;19920;-88
2022/11/09 09:02:43;;;;;;;;;;;21.80;45.10;;;;;;5107056;28;19912;-87
2022/11/09 09:05:16;;;;;;;;;;;21.80;45.00;;;;;;5096358;28;19920;-89
2022/11/09 09:07:41;;;;;;;;;;;21.80;45.00;;;;;;5086372;28;20286;-88
2022/11/09 09:10:10;;;;;;;;;;;21.80;45.00;;;;;;5083109;28;19920;-87
2022/11/09 09:12:36;;;;;;;;;;;22.00;45.50;;;;;;5070583;28;19925;-85
2022/11/09 09:15:02;;;;;;;;;;;22.30;45.30;;;;;;5080675;28;19920;-87
2022/11/09 09:17:27;;;;;;;;;;;22.40;44.80;;;;;;5106419;28;19911;-89
2022/11/09 09:19:53;;;;;;;;;;;22.70;44.50;;;;;;5092739;28;19920;-88
2022/11/09 09:22:19;;;;;;;;;;;22.90;44.00;;;;;;5091111;28;19912;-89
2022/11/09 09:24:44;;;;;;;;;;;23.10;43.80;;;;;;5085682;28;19924;-89
2022/11/09 09:27:13;;;;;;;;;;;23.40;43.80;;;;;;5074429;28;20439;-86
2022/11/09 09:29:39;;;;;;;;;;;23.70;43.80;;;;;;5083966;28;19927;-89
2022/11/09 09:32:05;;;;;;;;;;;24.10;42.70;;;;;;5073679;28;19924;-89
2022/11/09 09:34:30;;;;;;;;;;;24.30;41.90;;;;;;5081135;28;19939;-87
2022/11/09 09:36:56;;;;;;;;;;;24.60;41.10;;;;;;5087780;28;19936;-85
2022/11/09 09:39:21;;;;;;;;;;;24.80;41.00;;;;;;5086155;28;19912;-90
2022/11/09 09:41:58;;;;;;;;;;;24.70;39.30;;;;;;5078860;28;19920;-90
2022/11/09 09:44:44;;;;;;;;;;;24.90;39.30;;;;;;5067262;28;19909;-88
2022/11/09 09:47:16;;;;;;;;;;;25.10;39.40;;;;;;5071389;28;19926;-87
2022/11/09 09:49:51;;;;;;;;;;;25.10;39.00;;;;;;5092902;28;19975;-90
2022/11/09 09:52:23;;;;;;;;;;;25.10;38.40;;;;;;5088489;28;19931;-89
2022/11/09 09:54:53;;;;;;;;;;;25.00;38.20;;;;;;5109488;28;19919;-89
2022/11/09 09:57:20;;;;;;;;;;;25.10;38.50;;;;;;5090238;28;19966;-89
2022/11/09 09:59:50;;;;;;;;;;;25.20;38.50;;;;;;5094656;28;20141;-88
2022/11/09 10:02:21;;;;;;;;;;;25.10;38.10;;;;;;5085816;28;19932;-89
2022/11/09 10:04:46;;;;;;;;;;;25.20;38.10;;;;;;5088326;28;19938;-89
2022/11/09 10:07:19;;;;;;;;;;;25.20;38.30;;;;;;5082681;28;20404;-89
2022/11/09 10:09:44;;;;;;;;;;;25.40;38.30;;;;;;5092480;28;19927;-88
2022/11/09 10:12:30;;;;;;;;;;;25.60;37.70;;;;;;5079122;28;19924;-85
2022/11/09 10:14:58;;;;;;;;;;;25.80;37.30;;;;;;5092017;28;20310;-89
2022/11/09 10:17:46;;;;;;;;;;;25.80;36.90;;;;;;5081610;28;19920;-90
2022/11/09 10:20:34;;;;;;;;;;;25.90;36.80;;;;;;5086863;28;19927;-88
2022/11/09 10:23:13;;;;;;;;;;;26.20;36.80;;;;;;5079500;28;19923;-87
2022/11/09 10:25:44;;;;;;;;;;;26.30;35.70;;;;;;5071833;28;19916;-87
2022/11/09 10:28:12;;;;;;;;;;;26.50;35.60;;;;;;5072853;28;19984;-88
2022/11/09 10:30:38;;;;;;;;;;;26.70;35.90;;;;;;5076931;28;20012;-86
2022/11/09 10:33:09;;;;;;;;;;;26.80;35.60;;;;;;5090985;28;20256;-88
2022/11/09 10:35:47;;;;;;;;;;;26.70;35.40;;;;;;5089757;28;19973;-89
2022/11/09 10:38:22;;;;;;;;;;;26.60;34.80;;;;;;5077192;28;19916;-87
2022/11/09 10:40:52;;;;;;;;;;;26.60;35.30;;;;;;5072734;28;20013;-88
2022/11/09 10:43:25;;;;;;;;;;;26.50;35.20;;;;;;5077600;28;19916;-88
2022/11/09 10:46:03;;;;;;;;;;;26.40;35.10;;;;;;5072405;28;19927;-89
2022/11/09 10:48:33;;;;;;;;;;;26.50;35.00;;;;;;5084115;28;19920;-89
2022/11/09 10:50:58;;;;;;;;;;;26.50;35.20;;;;;;5084628;28;20408;-89
2022/11/09 10:53:26;;;;;;;;;;;26.60;35.00;;;;;;5086708;28;19912;-87
2022/11/09 10:55:52;;;;;;;;;;;26.60;35.10;;;;;;5091221;28;19927;-88
2022/11/09 10:58:29;;;;;;;;;;;26.50;35.30;;;;;;5086799;28;19995;-89
2022/11/09 11:01:23;;;;;;;;;;;;;;;;;;;;;
2022/11/09 11:03:50;;;;;;;;;;;26.40;34.80;;;;;;5091219;28;20285;-89
2022/11/09 11:06:22;;;;;;;;;;;26.30;34.60;;;;;;5079873;28;19924;-89
2022/11/09 11:08:57;;;;;;;;;;;26.20;34.60;;;;;;5102401;28;19955;-88
2022/11/09 11:11:29;;;;;;;;;;;26.10;34.70;;;;;;5079853;28;19947;-89
2022/11/09 11:14:07;;;;;;;;;;;26.00;34.60;;;;;;5089707;28;20007;-87
2022/11/09 11:16:34;;;;;;;;;;;26.00;34.60;;;;;;5084656;28;19950;-88
2022/11/09 11:19:19;;;;;;;;;;;25.90;34.70;;;;;;5085477;28;19923;-89
2022/11/09 11:21:45;;;;;;;;;;;25.80;34.80;;;;;;5068530;28;20137;-89
2022/11/09 11:24:14;;;;;;;;;;;25.60;34.70;;;;;;5092280;28;20373;-88
2022/11/09 11:26:52;;;;;;;;;;;25.50;34.90;;;;;;5070287;28;20091;-89
2022/11/09 11:29:25;;;;;;;;;;;25.30;34.80;;;;;;5095834;28;20381;-88
2022/11/09 11:31:51;;;;;;;;;;;25.30;35.10;;;;;;5090120;28;19950;-90
2022/11/09 11:34:16;;;;;;;;;;;25.50;35.40;;;;;;5092988;28;19916;-88
2022/11/09 11:36:44;;;;;;;;;;;25.80;35.30;;;;;;5091768;28;19920;-88
2022/11/09 11:39:22;;;;;;;;;;;25.90;34.90;;;;;;5090722;28;19958;-88
2022/11/09 11:41:57;;;;;;;;;;;26.00;34.60;;;;;;5088571;28;20275;-87
2022/11/09 11:44:41;;;;;;;;;;;26.10;34.40;;;;;;5070494;28;20007;-90
2022/11/09 11:47:09;;;;;;;;;;;26.10;33.90;;;;;;5072857;28;19921;-89
2022/11/09 11:49:53;;;;;;;;;;;26.10;33.90;;;;;;5078148;28;19916;-87
2022/11/09 11:52:58;;;;;;;;;;;26.20;33.90;;;;;;5083823;28;19928;-89
2022/11/09 11:55:46;;;;;;;;;;;26.30;34.00;;;;;;5090137;28;20326;-88
2022/11/09 11:58:47;;;;;;;;;;;26.40;33.60;;;;;;5085941;28;19920;-89
2022/11/09 12:01:38;;;;;;;;;;;26.40;33.80;;;;;;5084800;28;20353;-90
2022/11/09 12:04:24;;;;;;;;;;;26.30;33.10;;;;;;5079128;28;19912;-90
2022/11/09 12:06:55;;;;;;;;;;;26.00;33.30;;;;;;5070979;28;20268;-89
2022/11/09 12:09:24;;;;;;;;;;;25.80;33.70;;;;;;5071468;28;19920;-89
2022/11/09 12:12:05;;;;;;;;;;;25.50;33.90;;;;;;5088469;28;20390;-87
2022/11/09 12:14:49;;;;;;;;;;;25.30;34.30;;;;;;5086119;28;20657;-89
2022/11/09 12:17:29;;;;;;;;;;;25.10;34.60;;;;;;5076215;28;19920;-89
2022/11/09 12:19:55;;;;;;;;;;;25.00;34.80;;;;;;5084491;28;20361;-88
2022/11/09 12:22:26;;;;;;;;;;;24.80;34.90;;;;;;5078615;28;20302;-88
2022/11/09 12:24:57;;;;;;;;;;;24.80;35.00;;;;;;5098958;28;20278;-89
2022/11/09 12:27:22;;;;;;;;;;;24.80;35.30;;;;;;5092385;28;20050;-89
2022/11/09 12:30:06;;;;;;;;;;;24.70;35.40;;;;;;5069459;28;20015;-91
2022/11/09 12:32:39;;;;;;;;;;;24.70;35.00;;;;;;5092400;28;19937;-90
2022/11/09 12:35:07;;;;;;;;;;;24.50;34.50;;;;;;5087596;28;19916;-86
2022/11/09 12:37:36;;;;;;;;;;;24.20;34.60;;;;;;5087893;28;19931;-91
2022/11/09 12:40:05;;;;;;;;;;;23.90;34.70;;;;;;5077393;28;20347;-92
2022/11/09 12:42:36;;;;;;;;;;;23.70;34.80;;;;;;5087131;28;19920;-89
2022/11/09 12:45:24;;;;;;;;;;;23.70;35.20;;;;;;5080631;28;19916;-91
2022/11/09 12:47:53;;;;;;;;;;;23.60;35.20;;;;;;5086474;28;20325;-90
2022/11/09 12:50:20;;;;;;;;;;;23.50;35.10;;;;;;5089988;28;19979;-89
2022/11/09 12:52:46;;;;;;;;;;;23.40;35.20;;;;;;5096139;28;19932;-91
2022/11/09 12:55:16;;;;;;;;;;;23.40;35.20;;;;;;5113077;28;19919;-90
2022/11/09 12:57:44;;;;;;;;;;;23.40;35.20;;;;;;5093138;28;19916;-89
2022/11/09 13:00:30;;;;;;;;;;;23.40;35.20;;;;;;5089628;28;19947;-88
2022/11/09 13:02:57;;;;;;;;;;;23.30;35.20;;;;;;5084845;28;20401;-89
2022/11/09 13:05:25;;;;;;;;;;;23.30;35.10;;;;;;5087330;28;19916;-90
2022/11/09 13:07:52;;;;;;;;;;;23.10;35.40;;;;;;5086027;28;19920;-90
2022/11/09 13:10:30;;;;;;;;;;;23.10;35.60;;;;;;5083259;28;20381;-90
2022/11/09 13:13:04;;;;;;;;;;;22.90;35.80;;;;;;5087090;28;19975;-89
2022/11/09 13:15:31;;;;;;;;;;;22.90;35.90;;;;;;5083670;28;19931;-90
2022/11/09 13:17:58;;;;;;;;;;;22.80;36.10;;;;;;5085835;28;19920;-90
2022/11/09 13:20:33;;;;;;;;;;;22.80;36.30;;;;;;5085244;28;19916;-88
2022/11/09 13:23:00;;;;;;;;;;;22.70;36.60;;;;;;5091472;28;19919;-89
2022/11/09 13:25:37;;;;;;;;;;;22.50;36.80;;;;;;5092146;28;19916;-88
2022/11/09 13:28:23;;;;;;;;;;;22.50;36.90;;;;;;5082290;28;19958;-88
2022/11/09 13:30:51;;;;;;;;;;;22.50;37.00;;;;;;5082147;28;19982;-88
2022/11/09 13:33:20;;;;;;;;;;;22.50;37.10;;;;;;5073175;28;20753;-86
2022/11/09 13:35:46;;;;;;;;;;;22.50;37.20;;;;;;5087168;28;19923;-90
2022/11/09 13:38:16;;;;;;;;;;;22.50;37.30;;;;;;5088888;28;19920;-88
2022/11/09 13:41:02;;;;;;;;;;;22.50;37.30;;;;;;5087760;28;19919;-89
2022/11/09 13:43:28;;;;;;;;;;;22.40;37.20;;;;;;5079908;28;19920;-88
2022/11/09 13:45:55;;;;;;;;;;;22.40;37.30;;;;;;5073795;28;19956;-91
2022/11/09 13:48:21;;;;;;;;;;;22.40;37.40;;;;;;5080901;28;19927;-89
2022/11/09 13:50:50;;;;;;;;;;;22.30;37.40;;;;;;5086878;28;19912;-90
2022/11/09 13:53:34;;;;;;;;;;;22.30;37.40;;;;;;5089017;28;19924;-91
2022/11/09 13:56:12;;;;;;;;;;;22.30;37.40;;;;;;5091185;28;19912;-89
2022/11/09 13:58:39;;;;;;;;;;;22.20;37.20;;;;;;5096317;28;19927;-89
2022/11/09 14:01:05;;;;;;;;;;;22.20;37.00;;;;;;5074383;28;20434;-87
2022/11/09 14:03:31;;;;;;;;;;;22.20;36.90;;;;;;5070972;28;20054;-87
2022/11/09 14:05:57;;;;;;;;;;;22.20;36.80;;;;;;5071237;28;19916;-86
2022/11/09 14:08:28;;;;;;;;;;;22.30;36.60;;;;;;5071964;28;20384;-89
2022/11/09 14:10:59;;;;;;;;;;;22.30;36.40;;;;;;5071646;28;20408;-89
2022/11/09 14:13:43;;;;;;;;;;;22.40;36.40;;;;;;5081205;28;19920;-87
2022/11/09 14:16:21;;;;;;;;;;;22.40;36.30;;;;;;5094215;28;19912;-89
2022/11/09 14:18:58;;;;;;;;;;;22.40;36.10;;;;;;5090934;28;19955;-88
2022/11/09 14:21:41;;;;;;;;;;;22.40;36.00;;;;;;5092186;28;19912;-89
2022/11/09 14:24:15;;;;;;;;;;;22.40;35.70;;;;;;5085596;28;19920;-89
2022/11/09 14:27:00;;;;;;;;;;;22.40;35.80;;;;;;5079233;28;19924;-90
2022/11/09 14:29:25;;;;;;;;;;;22.50;35.80;;;;;;5072497;28;20002;-91
2022/11/09 14:31:51;;;;;;;;;;;22.40;35.50;;;;;;5070930;28;20015;-90